CheckWX is a tool to help pilots better visualize weather data.  It is not intended as a substitute for an official pre-flight weather briefing.

13:16:36 UTC

KPDX METAR
Portland International Airport
Portland, Oregon, USA
Current

24 mins ago

KPDX 131253Z VRB03KT 10SM SCT060 BKN250 07/05 A3016 RMK AO2 SLP212 T00720050
Observed
Dec-13 @ 12:53 UTC
Wind
  • Variable at 3 KTS
Visibility
10 SM
Flight Rules
VFR
Cloud Levels
  • Scattered at 6,000' AGL
  • Broken at 25,000' AGL
Temperature
C / 45°F
Dewpoint
C / 41°F
Humidity
87%
Altimeter
30.16" Hg
Pressure
1021.32 hPa
Previous

1 hour ago

KPDX 131153Z 11004KT 10SM FEW044 BKN060 BKN070 OVC250 08/06 A3017 RMK AO2 SLP216 60000 70031 T00780056 10089 20061 58006
Observed
Dec-13 @ 11:53 UTC
Wind
  • 110° at 4 KTS
Visibility
10 SM
Flight Rules
VFR
Cloud Levels
  • Few at 4,400' AGL
  • Broken at 6,000' AGL
  • Broken at 7,000' AGL
  • Overcast at 25,000' AGL
Temperature
C / 46°F
Dewpoint
C / 43°F
Humidity
87%
Altimeter
30.17" Hg
Pressure
1021.72 hPa
24 Hour Rain
0.31"
Previous

2 hours ago

KPDX 131053Z 11004KT 10SM SCT060 BKN080 07/05 A3019 RMK AO2 SLP222 T00670050
Observed
Dec-13 @ 10:53 UTC
Wind
  • 110° at 4 KTS
Visibility
10 SM
Flight Rules
VFR
Cloud Levels
  • Scattered at 6,000' AGL
  • Broken at 8,000' AGL
Temperature
C / 45°F
Dewpoint
C / 41°F
Humidity
87%
Altimeter
30.19" Hg
Pressure
1022.32 hPa